createdAt,value
2023-04-14T00:00:41.780Z,22.60
2023-04-14T00:01:41.715Z,23.00
2023-04-14T00:02:41.847Z,31.60
2023-04-14T00:03:41.865Z,34.50
2023-04-14T00:04:41.905Z,37.40
2023-04-14T00:05:41.712Z,36.40
2023-04-14T00:06:41.667Z,37.90
2023-04-14T00:07:41.713Z,39.90
2023-04-14T00:08:41.709Z,37.70
2023-04-14T00:09:41.626Z,39.40
2023-04-14T00:10:41.644Z,37.40
2023-04-14T00:11:41.619Z,33.80
2023-04-14T00:12:41.626Z,36.20
2023-04-14T00:13:41.582Z,32.50
2023-04-14T00:14:41.592Z,36.50
2023-04-14T00:15:41.603Z,32.10
2023-04-14T00:16:41.607Z,36.00
2023-04-14T00:17:41.602Z,33.10
2023-04-14T00:18:41.558Z,31.30
2023-04-14T00:19:41.548Z,31.60
2023-04-14T00:20:41.608Z,29.60
2023-04-14T00:22:14.277Z,30.40
2023-04-14T00:23:13.808Z,26.00
2023-04-14T00:24:14.327Z,24.70
2023-04-14T00:24:41.506Z,25.10
2023-04-14T00:25:41.529Z,22.30
2023-04-14T00:27:14.307Z,22.10
2023-04-14T00:27:41.516Z,23.10
2023-04-14T00:29:13.507Z,21.30
2023-04-14T00:30:07.877Z,21.40
2023-04-14T00:30:41.573Z,22.50
2023-04-14T00:32:13.911Z,22.30
2023-04-14T00:32:41.485Z,19.90
2023-04-14T00:33:41.432Z,21.80
2023-04-14T00:34:41.446Z,21.40
2023-04-14T00:35:41.410Z,21.90
2023-04-14T00:36:41.413Z,19.50
2023-04-14T00:37:41.458Z,21.90
2023-04-14T00:38:41.442Z,21.10
2023-04-14T00:39:41.411Z,20.30
2023-04-14T00:40:41.385Z,18.90
2023-04-14T00:41:41.377Z,17.40
2023-04-14T00:42:41.374Z,15.30
2023-04-14T00:43:41.355Z,15.70
2023-04-14T00:44:41.373Z,14.50
2023-04-14T00:45:41.354Z,16.20
2023-04-14T00:46:41.392Z,15.00
2023-04-14T00:47:41.342Z,17.50
2023-04-14T00:48:41.321Z,14.20
2023-04-14T00:49:41.338Z,19.90
2023-04-14T00:50:41.300Z,16.20
2023-04-14T00:51:41.303Z,17.40
2023-04-14T00:52:41.295Z,19.90
2023-04-14T00:53:41.297Z,18.20
2023-04-14T00:54:41.311Z,21.70
2023-04-14T00:55:41.287Z,18.90
2023-04-14T00:56:41.266Z,19.30
2023-04-14T00:57:41.268Z,22.10
2023-04-14T00:58:41.245Z,22.30
2023-04-14T00:59:41.245Z,19.40
2023-04-14T01:00:41.244Z,21.00
2023-04-14T01:01:41.283Z,20.70
2023-04-14T01:02:41.578Z,20.50
2023-04-14T01:03:41.508Z,19.70
2023-04-14T01:04:53.052Z,20.00
2023-04-14T01:05:43.187Z,20.30
2023-04-14T01:06:41.240Z,18.40
2023-04-14T01:07:41.173Z,21.60
2023-04-14T01:08:41.153Z,20.60
2023-04-14T01:09:41.156Z,19.70
2023-04-14T01:10:41.162Z,21.80
2023-04-14T01:11:41.900Z,19.50
2023-04-14T01:12:41.139Z,19.50
2023-04-14T01:13:41.118Z,22.50
2023-04-14T01:14:41.122Z,22.80
2023-04-14T01:15:41.192Z,19.50
2023-04-14T01:16:41.140Z,21.10
2023-04-14T01:17:41.210Z,23.50
2023-04-14T01:18:41.118Z,23.00
2023-04-14T01:19:41.112Z,23.50
2023-04-14T01:20:41.836Z,20.30
2023-04-14T01:21:41.071Z,23.60
2023-04-14T01:22:41.075Z,25.70
2023-04-14T01:23:41.112Z,23.50
2023-04-14T01:24:41.040Z,22.50
2023-04-14T01:25:41.021Z,23.10
2023-04-14T01:26:41.111Z,24.90
2023-04-14T01:27:41.051Z,26.60
2023-04-14T01:28:41.036Z,25.40
2023-04-14T01:29:41.037Z,28.30
2023-04-14T01:30:41.050Z,30.60
2023-04-14T01:31:41.055Z,26.50
2023-04-14T01:32:41.009Z,32.70
2023-04-14T01:33:41.081Z,28.60
2023-04-14T01:34:41.098Z,28.20
2023-04-14T01:35:40.972Z,32.60
2023-04-14T01:36:40.970Z,27.80
2023-04-14T01:37:40.946Z,31.70
2023-04-14T01:38:41.947Z,34.70
2023-04-14T01:39:40.938Z,32.30
2023-04-14T01:40:40.922Z,37.00
2023-04-14T01:41:40.907Z,34.00
2023-04-14T01:42:40.905Z,33.40
2023-04-14T01:43:40.911Z,36.10
2023-04-14T01:44:40.890Z,37.10
2023-04-14T01:45:40.924Z,33.10
2023-04-14T01:46:40.905Z,37.60
2023-04-14T01:47:40.919Z,36.70
2023-04-14T01:48:40.844Z,36.50
2023-04-14T01:49:40.903Z,35.00
2023-04-14T01:50:40.864Z,36.90
2023-04-14T01:51:40.835Z,34.40
2023-04-14T01:52:40.837Z,38.30
2023-04-14T01:53:40.848Z,43.60
2023-04-14T01:54:40.815Z,44.90
2023-04-14T01:55:40.824Z,43.80
2023-04-14T01:56:40.796Z,62.00
2023-04-14T01:57:40.800Z,60.20
2023-04-14T01:58:40.817Z,60.50
2023-04-14T01:59:40.822Z,60.20
2023-04-14T02:00:40.831Z,63.30
2023-04-14T02:01:40.783Z,67.50
2023-04-14T02:02:40.892Z,52.60
2023-04-14T02:03:40.852Z,52.30
2023-04-14T02:04:40.744Z,52.50
2023-04-14T02:05:40.753Z,54.00
2023-04-14T02:06:41.704Z,51.80
2023-04-14T02:07:40.718Z,45.60
2023-04-14T02:08:40.713Z,47.90
2023-04-14T02:09:40.707Z,50.70
2023-04-14T02:10:40.737Z,52.20
2023-04-14T02:11:40.684Z,67.30
2023-04-14T02:12:40.706Z,55.20
2023-04-14T02:13:40.677Z,51.10
2023-04-14T02:14:40.677Z,52.90
2023-04-14T02:15:40.654Z,52.00
2023-04-14T02:16:40.775Z,57.90
2023-04-14T02:17:40.721Z,46.10
2023-04-14T02:18:40.656Z,44.20
2023-04-14T02:19:40.620Z,45.00
2023-04-14T02:20:40.645Z,70.00
2023-04-14T02:21:40.661Z,69.50
2023-04-14T02:22:40.597Z,63.40
2023-04-14T02:23:40.586Z,57.50
2023-04-14T02:24:40.673Z,135.80
2023-04-14T02:25:40.566Z,93.70
2023-04-14T02:26:40.574Z,189.00
2023-04-14T02:27:40.574Z,100.50
2023-04-14T02:28:40.547Z,146.00
2023-04-14T02:29:40.588Z,104.20
2023-04-14T02:30:40.565Z,89.10
2023-04-14T02:31:40.534Z,69.10
2023-04-14T02:32:40.574Z,79.90
2023-04-14T02:33:40.512Z,92.40
2023-04-14T02:34:41.520Z,84.90
2023-04-14T02:35:40.544Z,87.80
2023-04-14T02:36:40.538Z,196.30
2023-04-14T02:37:40.494Z,64.00
2023-04-14T02:38:40.563Z,228.00
2023-04-14T02:39:40.487Z,205.00
2023-04-14T02:40:40.485Z,270.30
2023-04-14T02:41:40.454Z,217.70
2023-04-14T02:42:40.482Z,242.70
2023-04-14T02:43:40.433Z,200.30
2023-04-14T02:44:40.442Z,177.10
2023-04-14T02:45:40.423Z,112.20
2023-04-14T02:46:40.518Z,146.50
2023-04-14T02:47:40.545Z,171.10
2023-04-14T02:48:40.414Z,187.70
2023-04-14T02:49:40.403Z,178.10
2023-04-14T02:50:40.403Z,232.40
2023-04-14T02:51:40.372Z,267.10
2023-04-14T02:52:40.381Z,418.60
2023-04-14T02:53:40.375Z,216.70
2023-04-14T02:54:40.361Z,449.70
2023-04-14T02:55:40.373Z,521.80
2023-04-14T02:56:41.386Z,495.00
2023-04-14T02:57:40.326Z,371.60
2023-04-14T02:58:40.377Z,439.60
2023-04-14T02:59:40.306Z,321.50
2023-04-14T03:00:40.332Z,291.30
2023-04-14T03:01:40.336Z,523.50
2023-04-14T03:02:40.413Z,465.00
2023-04-14T03:03:40.452Z,371.70
2023-04-14T03:04:40.300Z,317.30
2023-04-14T03:05:40.293Z,452.90
2023-04-14T03:06:40.290Z,434.80
2023-04-14T03:07:40.287Z,324.20
2023-04-14T03:08:40.259Z,418.10
2023-04-14T03:09:40.266Z,602.00
2023-04-14T03:10:40.245Z,414.40
2023-04-14T03:11:40.233Z,491.60
2023-04-14T03:12:40.278Z,630.70
2023-04-14T03:13:40.226Z,736.80
2023-04-14T03:14:40.207Z,719.10
2023-04-14T03:15:40.250Z,647.50
2023-04-14T03:16:40.214Z,768.70
2023-04-14T03:17:40.256Z,850.50
2023-04-14T03:18:40.175Z,845.30
2023-04-14T03:19:41.040Z,905.70
2023-04-14T03:20:40.191Z,796.00
2023-04-14T03:21:40.171Z,606.10
2023-04-14T03:22:40.139Z,739.90
2023-04-14T03:23:40.152Z,472.00
2023-04-14T03:24:40.135Z,454.00
2023-04-14T03:25:40.115Z,494.60
2023-04-14T03:26:40.132Z,488.10
2023-04-14T03:27:40.115Z,360.20
2023-04-14T03:28:40.151Z,601.30
2023-04-14T03:29:40.087Z,509.40
2023-04-14T03:30:40.119Z,539.40
2023-04-14T03:31:40.172Z,503.30
2023-04-14T03:32:40.127Z,521.30
2023-04-14T03:33:40.073Z,650.10
2023-04-14T03:34:40.048Z,619.70
2023-04-14T03:35:40.065Z,447.80
2023-04-14T03:36:40.089Z,429.70
2023-04-14T03:37:40.080Z,267.70
2023-04-14T03:38:40.929Z,345.10
2023-04-14T03:39:40.010Z,335.90
2023-04-14T03:40:40.017Z,385.30
2023-04-14T03:41:40.015Z,367.30
2023-04-14T03:42:40.060Z,340.60
2023-04-14T03:43:39.986Z,409.80
2023-04-14T03:44:39.978Z,411.70
2023-04-14T03:45:39.961Z,409.40
2023-04-14T03:46:39.994Z,238.60
2023-04-14T04:02:54.586Z,333.80
2023-04-14T04:03:54.602Z,290.90
2023-04-14T04:04:54.496Z,330.60
2023-04-14T04:05:54.441Z,361.50
2023-04-14T04:06:55.514Z,244.30
2023-04-14T04:07:55.567Z,314.00
2023-04-14T04:08:55.500Z,216.50
2023-04-14T04:09:55.549Z,226.80
2023-04-14T04:10:55.495Z,235.40
2023-04-14T04:11:55.492Z,254.10
2023-04-14T04:12:55.488Z,401.00
2023-04-14T04:13:55.450Z,379.30
2023-04-14T04:14:55.458Z,371.80
2023-04-14T04:15:55.467Z,367.70
2023-04-14T04:16:55.503Z,343.50
2023-04-14T04:17:55.514Z,271.70
2023-04-14T04:18:55.417Z,319.80
2023-04-14T04:19:55.411Z,407.90
2023-04-14T04:20:55.417Z,329.50
2023-04-14T04:21:55.395Z,321.30
2023-04-14T04:22:55.379Z,317.50
2023-04-14T04:23:55.389Z,429.20
2023-04-14T04:24:55.379Z,370.50
2023-04-14T04:25:55.389Z,339.80
2023-04-14T04:26:55.404Z,445.10
2023-04-14T04:27:56.356Z,337.00
2023-04-14T04:28:55.336Z,338.60
2023-04-14T04:29:55.344Z,273.20
2023-04-14T04:30:55.368Z,211.00
2023-04-14T04:31:55.514Z,182.40
2023-04-14T04:32:55.349Z,242.90
2023-04-14T04:33:55.295Z,202.90
2023-04-14T04:34:55.284Z,229.00
2023-04-14T04:35:55.303Z,276.30
2023-04-14T04:36:55.320Z,317.00
2023-04-14T04:37:55.264Z,253.00
2023-04-14T04:38:55.252Z,237.20
2023-04-14T04:39:55.258Z,349.40
2023-04-14T04:40:55.281Z,304.90
2023-04-14T04:41:55.249Z,294.00
2023-04-14T04:42:55.236Z,141.90
2023-04-14T04:43:55.209Z,165.50
2023-04-14T04:44:55.212Z,248.80
2023-04-14T04:45:55.237Z,248.30
2023-04-14T04:46:55.216Z,168.70
2023-04-14T04:47:55.254Z,160.40
2023-04-14T04:48:55.200Z,206.90
2023-04-14T04:49:55.220Z,203.00
2023-04-14T04:50:55.189Z,166.50
2023-04-14T04:51:55.150Z,313.20
2023-04-14T04:52:55.148Z,241.50
2023-04-14T04:53:55.153Z,244.20
2023-04-14T04:54:55.155Z,161.70
2023-04-14T04:55:55.139Z,208.50
2023-04-14T04:56:55.123Z,260.90
2023-04-14T04:57:55.134Z,267.70
2023-04-14T04:58:55.092Z,217.40
2023-04-14T04:59:55.108Z,262.50
2023-04-14T05:00:55.088Z,223.60
2023-04-14T05:01:55.190Z,155.10
2023-04-14T05:02:55.161Z,156.70
2023-04-14T05:03:55.083Z,208.00
2023-04-14T05:04:55.096Z,202.50
2023-04-14T05:05:55.039Z,205.70
2023-04-14T05:06:55.048Z,195.60
2023-04-14T05:07:55.054Z,181.50
2023-04-14T05:08:55.028Z,223.30
2023-04-14T05:09:56.025Z,168.70
2023-04-14T05:10:54.994Z,149.30
2023-04-14T05:11:55.003Z,105.00
2023-04-14T05:12:54.980Z,106.50
2023-04-14T05:13:54.972Z,142.80
2023-04-14T05:14:55.017Z,156.10
2023-04-14T05:15:54.954Z,135.80
2023-04-14T05:16:54.972Z,155.00
2023-04-14T05:17:55.001Z,161.30
2023-04-14T05:18:54.947Z,129.90
2023-04-14T05:19:54.966Z,100.20
2023-04-14T05:20:54.922Z,115.10
2023-04-14T05:21:54.970Z,109.20
2023-04-14T05:22:54.902Z,117.80
2023-04-14T05:23:54.920Z,110.00
2023-04-14T05:24:54.910Z,134.60
2023-04-14T05:25:54.899Z,144.90
2023-04-14T05:27:12.527Z,102.20
2023-04-14T05:27:57.620Z,149.00
2023-04-14T05:28:54.862Z,143.60
2023-04-14T05:29:54.896Z,224.50
2023-04-14T05:30:54.892Z,160.10
2023-04-14T05:31:54.847Z,183.30
2023-04-14T05:32:54.930Z,132.70
2023-04-14T05:33:54.853Z,139.80
2023-04-14T05:34:54.824Z,264.50
2023-04-14T05:35:54.824Z,162.40
2023-04-14T05:36:54.799Z,191.80
2023-04-14T05:38:26.725Z,227.00
2023-04-14T05:38:54.791Z,267.10
2023-04-14T05:39:54.786Z,223.50
2023-04-14T05:40:54.784Z,267.30
2023-04-14T05:41:54.778Z,222.60
2023-04-14T05:42:56.557Z,296.70
2023-04-14T05:43:55.762Z,256.20
2023-04-14T05:44:54.734Z,99.40
2023-04-14T05:45:54.759Z,187.80
2023-04-14T05:46:54.895Z,224.50
2023-04-14T05:47:54.742Z,219.60
2023-04-14T05:48:54.718Z,146.30
2023-04-14T05:49:54.704Z,208.60
2023-04-14T05:50:54.682Z,98.40
2023-04-14T05:51:54.702Z,88.10
2023-04-14T05:52:54.694Z,120.00
2023-04-14T05:53:54.693Z,71.10
2023-04-14T05:54:54.658Z,75.50
2023-04-14T05:55:54.674Z,67.60
2023-04-14T05:56:54.695Z,68.30
2023-04-14T05:57:54.645Z,88.30
2023-04-14T05:58:54.642Z,128.00
2023-04-14T05:59:56.447Z,153.20
2023-04-14T06:00:54.682Z,131.40
2023-04-14T06:01:54.732Z,160.50
2023-04-14T06:02:54.875Z,101.70
2023-04-14T06:03:54.945Z,81.90
2023-04-14T06:04:54.641Z,74.40
2023-04-14T06:05:54.603Z,114.70
2023-04-14T06:06:54.563Z,139.40
2023-04-14T06:07:54.548Z,110.00
2023-04-14T06:08:54.561Z,79.40
2023-04-14T06:09:54.565Z,99.50
2023-04-14T06:10:54.555Z,111.00
2023-04-14T06:11:54.529Z,184.60
2023-04-14T06:12:54.529Z,197.30
2023-04-14T06:13:54.546Z,118.90
2023-04-14T06:14:55.492Z,167.00
2023-04-14T06:15:54.501Z,175.80
2023-04-14T06:16:54.572Z,147.70
2023-04-14T06:17:55.169Z,165.90
2023-04-14T06:18:54.472Z,130.00
2023-04-14T06:19:54.490Z,197.50
2023-04-14T06:20:54.472Z,178.10
2023-04-14T06:21:55.078Z,131.80
2023-04-14T06:22:54.449Z,112.30
2023-04-14T06:23:54.471Z,161.50
2023-04-14T06:24:54.452Z,187.10
2023-04-14T06:25:54.531Z,124.80
2023-04-14T06:26:54.428Z,158.40
2023-04-14T06:27:54.397Z,154.60
2023-04-14T06:28:54.390Z,293.50
2023-04-14T06:29:54.384Z,275.90
2023-04-14T06:30:54.388Z,190.30
2023-04-14T06:31:54.452Z,175.00
2023-04-14T06:32:54.565Z,250.00
2023-04-14T06:33:54.361Z,195.40
2023-04-14T06:34:54.345Z,160.00
2023-04-14T06:35:54.335Z,148.50
2023-04-14T06:36:54.363Z,183.10
2023-04-14T06:37:54.323Z,195.80
2023-04-14T06:38:54.348Z,133.30
2023-04-14T06:39:54.318Z,104.70
2023-04-14T06:40:54.347Z,223.70
2023-04-14T06:41:54.317Z,197.10
2023-04-14T06:42:54.289Z,111.70
2023-04-14T06:43:54.280Z,187.40
2023-04-14T06:44:54.281Z,114.00
2023-04-14T06:45:55.211Z,151.60
2023-04-14T06:46:55.830Z,110.10
2023-04-14T06:47:55.325Z,171.70
2023-04-14T06:48:54.275Z,148.20
2023-04-14T06:49:54.244Z,179.30
2023-04-14T06:50:54.234Z,116.30
2023-04-14T06:51:54.236Z,92.50
2023-04-14T06:52:54.209Z,99.50
2023-04-14T06:53:55.187Z,126.70
2023-04-14T06:54:54.183Z,105.80
2023-04-14T06:55:54.210Z,95.00
2023-04-14T06:56:54.186Z,90.20
2023-04-14T06:57:54.180Z,70.60
2023-04-14T06:58:54.208Z,64.30
2023-04-14T06:59:54.188Z,68.50
2023-04-14T07:00:54.184Z,57.30
2023-04-14T07:01:54.236Z,52.50
2023-04-14T07:02:54.277Z,49.20
2023-04-14T07:03:54.119Z,45.00
2023-04-14T07:04:54.113Z,32.10
2023-04-14T07:05:54.156Z,40.80
2023-04-14T07:06:54.084Z,46.20
2023-04-14T07:07:54.166Z,64.60
2023-04-14T07:08:54.095Z,91.80
2023-04-14T07:09:55.128Z,84.20
2023-04-14T07:10:54.052Z,88.40
2023-04-14T07:11:54.054Z,60.00
2023-04-14T07:12:54.075Z,69.30
2023-04-14T07:13:54.056Z,57.70
2023-04-14T07:14:54.061Z,96.00
2023-04-14T07:15:54.093Z,95.10
2023-04-14T07:16:54.015Z,98.70
2023-04-14T07:17:54.115Z,82.50
2023-04-14T07:18:54.000Z,52.30
2023-04-14T07:19:54.012Z,54.90
2023-04-14T07:20:54.005Z,49.10
2023-04-14T07:21:54.033Z,47.80
2023-04-14T07:22:54.005Z,30.00
2023-04-14T07:23:54.035Z,38.40
2023-04-14T07:24:54.015Z,42.80
2023-04-14T07:25:53.959Z,50.60
2023-04-14T07:26:53.994Z,49.60
2023-04-14T07:28:03.253Z,34.50
2023-04-14T07:28:55.933Z,28.00
2023-04-14T07:29:53.942Z,22.30
2023-04-14T07:30:53.949Z,22.50
2023-04-14T07:31:54.028Z,21.30
2023-04-14T07:32:53.910Z,16.60
2023-04-14T07:33:53.906Z,17.80
2023-04-14T07:34:53.886Z,21.10
2023-04-14T07:36:02.739Z,27.20
2023-04-14T07:36:55.877Z,17.40
2023-04-14T07:37:53.857Z,20.30
2023-04-14T07:38:53.869Z,14.40
2023-04-14T07:39:53.857Z,13.70
2023-04-14T07:40:54.001Z,11.50
2023-04-14T07:41:53.845Z,14.10
2023-04-14T07:42:53.839Z,7.90
2023-04-14T07:43:53.799Z,9.30
2023-04-14T07:44:53.816Z,8.90
2023-04-14T07:45:53.855Z,7.80
2023-04-14T07:46:53.805Z,7.90
2023-04-14T07:47:57.589Z,9.50
2023-04-14T07:48:53.769Z,8.20
2023-04-14T07:49:53.771Z,7.10
2023-04-14T07:50:53.796Z,6.60
2023-04-14T07:51:53.748Z,5.70
2023-04-14T07:52:53.805Z,7.00
2023-04-14T07:53:53.740Z,7.50
2023-04-14T07:54:53.715Z,6.80
2023-04-14T07:55:54.718Z,8.00
2023-04-14T07:56:53.732Z,7.00
2023-04-14T07:57:53.700Z,5.80
2023-04-14T07:58:53.701Z,6.60
2023-04-14T07:59:53.687Z,6.50
2023-04-14T08:00:53.676Z,6.70
2023-04-14T08:01:53.775Z,8.30
2023-04-14T08:02:53.761Z,7.60
2023-04-14T08:03:53.822Z,6.90
2023-04-14T08:04:53.730Z,7.10
2023-04-14T08:05:53.649Z,8.10
2023-04-14T08:06:53.835Z,6.50
2023-04-14T08:07:53.653Z,6.10
2023-04-14T08:08:53.660Z,8.00
2023-04-14T08:09:53.642Z,6.00
2023-04-14T08:10:53.615Z,5.60
2023-04-14T08:11:53.643Z,5.70
2023-04-14T08:12:53.572Z,5.60
2023-04-14T08:13:53.615Z,5.90
2023-04-14T08:14:53.585Z,5.20
2023-04-14T08:15:53.614Z,5.40
2023-04-14T08:16:54.172Z,5.00
2023-04-14T08:17:53.593Z,5.00
2023-04-14T08:18:55.031Z,6.50
2023-04-14T08:19:53.543Z,5.20
2023-04-14T08:20:53.528Z,4.90
2023-04-14T08:21:53.569Z,6.10
2023-04-14T08:22:53.519Z,4.80
2023-04-14T08:23:53.537Z,6.80
2023-04-14T08:24:53.564Z,6.00
2023-04-14T08:25:53.486Z,5.10
2023-04-14T08:26:53.514Z,4.50
2023-04-14T08:27:53.482Z,4.20
2023-04-14T08:28:53.495Z,5.80
2023-04-14T08:29:53.466Z,6.40
2023-04-14T08:30:53.478Z,5.80
2023-04-14T08:31:53.504Z,4.50
2023-04-14T08:32:54.587Z,4.90
2023-04-14T08:33:53.472Z,5.70
2023-04-14T08:35:35.738Z,7.10
2023-04-14T08:35:57.913Z,7.40
2023-04-14T08:36:54.403Z,7.10
2023-04-14T08:37:53.416Z,7.50
2023-04-14T08:38:53.380Z,5.70
2023-04-14T08:39:53.382Z,8.10
2023-04-14T08:40:53.403Z,14.50
2023-04-14T08:41:53.408Z,15.00
2023-04-14T08:42:53.359Z,7.10
2023-04-14T08:43:53.383Z,8.00
2023-04-14T08:44:53.352Z,4.50
2023-04-14T08:45:53.492Z,4.80
2023-04-14T08:46:53.416Z,6.80
2023-04-14T08:47:53.411Z,4.60
2023-04-14T08:48:53.351Z,5.40
2023-04-14T08:49:53.343Z,4.90
2023-04-14T08:50:53.290Z,5.90
2023-04-14T08:51:53.304Z,5.40
2023-04-14T08:52:53.281Z,4.50
2023-04-14T08:53:53.309Z,4.90
2023-04-14T08:54:53.290Z,5.20
2023-04-14T08:55:53.313Z,5.80
2023-04-14T08:56:53.295Z,8.50
2023-04-14T08:57:53.257Z,8.40
2023-04-14T08:58:53.247Z,9.90
2023-04-14T08:59:53.228Z,8.10
2023-04-14T09:00:53.245Z,13.20
2023-04-14T09:01:53.377Z,7.00
2023-04-14T09:02:53.310Z,5.40
2023-04-14T09:03:53.401Z,3.90
2023-04-14T09:04:55.113Z,4.50
2023-04-14T09:05:53.194Z,6.10
2023-04-14T09:06:53.180Z,10.40
2023-04-14T09:07:53.180Z,22.00
2023-04-14T09:08:53.248Z,10.30
2023-04-14T09:09:53.163Z,7.10
2023-04-14T09:10:53.149Z,18.40
2023-04-14T09:11:53.140Z,5.10
2023-04-14T09:12:53.310Z,6.60
2023-04-14T09:13:53.131Z,31.60
2023-04-14T09:14:53.120Z,14.00
2023-04-14T09:15:53.116Z,5.50
2023-04-14T09:16:53.130Z,4.60
2023-04-14T09:17:53.153Z,5.10
2023-04-14T09:18:53.117Z,3.70
2023-04-14T09:20:36.160Z,4.10
2023-04-14T09:21:50.726Z,3.40
2023-04-14T09:21:54.998Z,4.60
2023-04-14T09:22:54.092Z,3.90
2023-04-14T09:23:53.150Z,3.10
2023-04-14T09:24:53.100Z,3.10
2023-04-14T09:25:53.020Z,4.20
2023-04-14T09:26:53.020Z,3.60
2023-04-14T09:27:53.020Z,4.60
2023-04-14T09:28:52.999Z,5.00
2023-04-14T09:30:24.938Z,5.80
2023-04-14T09:30:52.987Z,6.80
2023-04-14T09:31:53.040Z,8.80
2023-04-14T09:32:53.066Z,5.80
2023-04-14T09:33:53.030Z,4.10
2023-04-14T09:34:53.988Z,3.90
2023-04-14T09:35:52.935Z,3.80
2023-04-14T09:36:52.935Z,4.10
2023-04-14T09:37:52.931Z,4.10
2023-04-14T09:38:52.948Z,4.00
2023-04-14T09:39:52.931Z,3.70
2023-04-14T09:40:54.302Z,4.70
2023-04-14T09:41:52.891Z,6.80
2023-04-14T09:42:52.883Z,3.00
2023-04-14T09:43:52.873Z,7.50
2023-04-14T09:44:52.896Z,3.10
2023-04-14T09:45:52.933Z,3.30
2023-04-14T09:46:53.841Z,3.70
2023-04-14T09:47:52.871Z,5.80
2023-04-14T09:48:52.863Z,3.50
2023-04-14T09:49:52.824Z,4.00
2023-04-14T09:50:52.832Z,5.20
2023-04-14T09:51:52.838Z,3.80
2023-04-14T09:52:52.834Z,5.40
2023-04-14T09:53:52.880Z,6.20
2023-04-14T09:54:52.807Z,3.90
2023-04-14T09:55:52.813Z,4.20
2023-04-14T09:56:52.778Z,4.70
2023-04-14T09:57:52.769Z,4.70
2023-04-14T09:58:52.791Z,3.30
2023-04-14T09:59:52.757Z,3.30
2023-04-14T10:00:52.773Z,3.00
2023-04-14T10:01:52.884Z,3.90
2023-04-14T10:02:52.914Z,3.00
2023-04-14T10:03:52.814Z,3.00
2023-04-14T10:04:52.752Z,4.30
2023-04-14T10:05:52.730Z,3.60
2023-04-14T10:06:52.723Z,3.50
2023-04-14T10:07:52.721Z,3.20
2023-04-14T10:08:52.686Z,4.20
2023-04-14T10:09:52.685Z,4.90
2023-04-14T10:10:52.752Z,6.10
2023-04-14T10:11:52.705Z,7.60
2023-04-14T10:12:52.668Z,6.00
2023-04-14T10:13:52.676Z,6.50
2023-04-14T10:14:52.694Z,5.90
2023-04-14T10:15:52.738Z,4.00
2023-04-14T10:16:52.647Z,6.00
2023-04-14T10:17:52.687Z,9.10
2023-04-14T10:18:52.627Z,6.40
2023-04-14T10:19:52.619Z,4.30
2023-04-14T10:20:52.616Z,4.10
2023-04-14T10:21:52.586Z,7.30
2023-04-14T10:22:52.619Z,4.10
2023-04-14T10:23:52.580Z,7.50
2023-04-14T10:24:52.579Z,3.90
2023-04-14T10:25:52.585Z,4.90
2023-04-14T10:26:52.580Z,4.50
2023-04-14T10:27:52.542Z,5.20
2023-04-14T10:28:52.624Z,3.80
2023-04-14T10:29:52.567Z,3.00
2023-04-14T10:30:52.577Z,6.00
2023-04-14T10:31:52.566Z,4.70
2023-04-14T10:32:52.678Z,4.60
2023-04-14T10:33:52.548Z,6.30
2023-04-14T10:34:52.513Z,6.90
2023-04-14T10:35:52.511Z,5.90
2023-04-14T10:36:53.465Z,7.20
2023-04-14T10:37:52.480Z,4.10
2023-04-14T10:38:52.494Z,5.60
2023-04-14T10:39:52.466Z,5.00
2023-04-14T10:40:52.446Z,4.60
2023-04-14T10:41:52.473Z,5.00
2023-04-14T10:42:52.436Z,5.60
2023-04-14T10:43:52.465Z,3.50
2023-04-14T10:44:52.424Z,5.90
2023-04-14T10:45:52.414Z,7.70
2023-04-14T10:46:52.485Z,8.90
2023-04-14T10:47:52.449Z,6.80
2023-04-14T10:48:52.405Z,6.20
2023-04-14T10:49:52.388Z,2.90
2023-04-14T10:50:52.368Z,5.30
2023-04-14T10:51:52.396Z,5.40
2023-04-14T10:52:52.428Z,5.20
2023-04-14T10:53:52.343Z,4.30
2023-04-14T10:54:52.349Z,4.30
2023-04-14T10:55:52.704Z,6.70
2023-04-14T10:56:52.329Z,10.80
2023-04-14T10:57:52.328Z,4.80
2023-04-14T10:58:52.342Z,7.00
2023-04-14T10:59:52.323Z,5.70
2023-04-14T11:00:53.308Z,4.90
2023-04-14T11:01:52.379Z,5.90
2023-04-14T11:02:52.367Z,5.60
2023-04-14T11:03:52.410Z,6.20
2023-04-14T11:04:52.265Z,7.80
2023-04-14T11:05:52.261Z,7.80
2023-04-14T11:06:52.317Z,7.30
2023-04-14T11:07:52.278Z,5.90
2023-04-14T11:08:52.236Z,5.50
2023-04-14T11:09:52.226Z,6.30
2023-04-14T11:10:52.225Z,6.40
2023-04-14T11:11:52.217Z,8.20
2023-04-14T11:12:52.210Z,7.90
2023-04-14T11:13:52.208Z,6.50
2023-04-14T11:14:52.232Z,6.90
2023-04-14T11:15:52.150Z,7.00
2023-04-14T11:17:02.902Z,6.70
2023-04-14T11:18:19.695Z,5.80
2023-04-14T11:18:52.153Z,5.70
2023-04-14T11:19:52.150Z,4.80
2023-04-14T11:20:52.174Z,8.20
2023-04-14T11:21:52.129Z,6.60
2023-04-14T11:22:52.120Z,4.80
2023-04-14T11:23:52.111Z,7.40
2023-04-14T11:24:52.096Z,6.90
2023-04-14T11:25:52.099Z,6.80
2023-04-14T11:26:52.105Z,5.70
2023-04-14T11:27:52.285Z,6.00
2023-04-14T11:28:52.051Z,6.10
2023-04-14T11:29:52.127Z,5.10
2023-04-14T11:30:52.758Z,6.70
2023-04-14T11:31:52.066Z,4.30
2023-04-14T11:32:52.253Z,6.60
2023-04-14T11:33:52.025Z,5.30
2023-04-14T11:34:52.081Z,4.30
2023-04-14T11:35:52.006Z,4.60
2023-04-14T11:36:52.006Z,5.00
2023-04-14T11:37:52.003Z,3.50
2023-04-14T11:38:51.998Z,6.00
2023-04-14T11:39:51.989Z,9.30
2023-04-14T11:40:52.000Z,5.40
2023-04-14T11:41:51.969Z,4.80
2023-04-14T11:42:51.959Z,7.70
2023-04-14T11:43:52.664Z,4.80
2023-04-14T11:44:51.927Z,5.30
2023-04-14T11:45:52.075Z,8.00
2023-04-14T11:46:51.919Z,6.10
2023-04-14T11:47:51.964Z,12.80
2023-04-14T11:48:51.939Z,6.70
2023-04-14T11:49:51.896Z,5.70
2023-04-14T11:50:51.904Z,5.60
2023-04-14T11:51:51.889Z,7.70
2023-04-14T11:52:51.892Z,5.20
2023-04-14T11:53:51.931Z,5.20
2023-04-14T11:54:51.935Z,6.10
2023-04-14T11:55:51.891Z,5.10
2023-04-14T11:56:51.870Z,6.30
2023-04-14T11:57:51.888Z,5.30
2023-04-14T11:58:51.864Z,8.00
2023-04-14T11:59:51.874Z,6.00
2023-04-14T12:00:53.626Z,6.70
2023-04-14T12:01:51.874Z,8.00
2023-04-14T12:02:52.036Z,7.20
2023-04-14T12:03:52.022Z,9.40
2023-04-14T12:04:51.975Z,6.20
2023-04-14T12:05:51.798Z,4.30
2023-04-14T12:06:53.182Z,5.20
2023-04-14T12:07:51.776Z,4.10
2023-04-14T12:08:51.794Z,5.80
2023-04-14T12:09:51.770Z,5.90
2023-04-14T12:10:52.152Z,7.10
2023-04-14T12:11:51.744Z,4.70
2023-04-14T12:12:51.748Z,4.90
2023-04-14T12:13:51.737Z,6.40
2023-04-14T12:14:51.739Z,5.90
2023-04-14T12:15:51.813Z,4.50
2023-04-14T12:16:52.389Z,4.00
2023-04-14T12:17:51.700Z,6.00
2023-04-14T12:18:51.698Z,8.40
2023-04-14T12:19:51.683Z,4.50
2023-04-14T12:20:51.705Z,5.10
2023-04-14T12:21:51.677Z,7.30
2023-04-14T12:22:51.666Z,5.80
2023-04-14T12:23:51.668Z,9.40
2023-04-14T12:24:51.657Z,7.40
2023-04-14T12:25:51.691Z,5.00
2023-04-14T12:26:51.680Z,6.00
2023-04-14T12:27:51.639Z,6.60
2023-04-14T12:28:52.003Z,5.30
2023-04-14T12:29:51.635Z,5.80
2023-04-14T12:30:51.639Z,6.30
2023-04-14T12:31:51.647Z,8.60
2023-04-14T12:32:51.661Z,8.20
2023-04-14T12:33:51.593Z,7.90
2023-04-14T12:34:51.616Z,4.70
2023-04-14T12:35:51.600Z,5.40
2023-04-14T12:36:51.623Z,4.80
2023-04-14T12:37:51.605Z,5.00
2023-04-14T12:38:51.527Z,6.70
2023-04-14T12:39:51.538Z,10.20
2023-04-14T12:40:51.541Z,7.60
2023-04-14T12:41:51.551Z,7.60
2023-04-14T12:42:51.539Z,8.80
2023-04-14T12:43:51.542Z,6.50
2023-04-14T12:44:52.210Z,5.10
2023-04-14T12:45:51.489Z,3.20
2023-04-14T12:46:51.499Z,5.80
2023-04-14T12:47:52.118Z,4.60
2023-04-14T12:48:51.473Z,9.70
2023-04-14T12:49:51.480Z,4.90
2023-04-14T12:50:51.968Z,4.60
2023-04-14T12:51:51.455Z,3.50
2023-04-14T12:52:51.454Z,4.20
2023-04-14T12:53:51.429Z,3.30
2023-04-14T12:54:51.411Z,4.40
2023-04-14T12:55:51.414Z,5.30
2023-04-14T12:56:51.411Z,5.90
2023-04-14T12:57:51.474Z,4.10
2023-04-14T12:58:51.478Z,3.90
2023-04-14T12:59:51.400Z,5.10
2023-04-14T13:00:51.431Z,5.90
2023-04-14T13:01:51.444Z,5.80
2023-04-14T13:02:52.198Z,5.00
2023-04-14T13:03:51.780Z,3.60
2023-04-14T13:04:51.872Z,5.20
2023-04-14T13:05:51.364Z,4.20
2023-04-14T13:06:51.374Z,3.90
2023-04-14T13:07:51.303Z,3.10
2023-04-14T13:08:51.331Z,5.50
2023-04-14T13:09:51.298Z,6.00
2023-04-14T13:10:51.327Z,3.50